sensor_id;sensor_type;location;lat;lon;timestamp;temperature;humidity
54516;DHT22;40422;45.892;4.738;2023-04-06T03:00:38;3.50;99.90
54516;DHT22;40422;45.892;4.738;2023-04-06T03:03:09;3.40;99.90
54516;DHT22;40422;45.892;4.738;2023-04-06T03:05:35;3.40;99.90
54516;DHT22;40422;45.892;4.738;2023-04-06T03:08:03;3.40;99.90
54516;DHT22;40422;45.892;4.738;2023-04-06T03:10:31;3.40;99.90
54516;DHT22;40422;45.892;4.738;2023-04-06T03:12:58;3.40;99.90
54516;DHT22;40422;45.892;4.738;2023-04-06T03:15:28;3.40;99.90
54516;DHT22;40422;45.892;4.738;2023-04-06T03:17:54;3.40;99.90
54516;DHT22;40422;45.892;4.738;2023-04-06T03:20:20;3.40;99.90
54516;DHT22;40422;45.892;4.738;2023-04-06T03:22:46;3.40;99.90
54516;DHT22;40422;45.892;4.738;2023-04-06T03:25:11;3.40;99.90
54516;DHT22;40422;45.892;4.738;2023-04-06T03:27:37;3.30;99.90
54516;DHT22;40422;45.892;4.738;2023-04-06T03:30:03;3.30;99.90
54516;DHT22;40422;45.892;4.738;2023-04-06T03:32:29;3.40;99.90
54516;DHT22;40422;45.892;4.738;2023-04-06T03:34:55;3.40;99.90
54516;DHT22;40422;45.892;4.738;2023-04-06T03:37:20;3.40;99.90
54516;DHT22;40422;45.892;4.738;2023-04-06T03:39:46;3.40;99.90
54516;DHT22;40422;45.892;4.738;2023-04-06T03:42:12;3.50;99.90
54516;DHT22;40422;45.892;4.738;2023-04-06T03:44:37;3.40;99.90
54516;DHT22;40422;45.892;4.738;2023-04-06T03:47:03;3.50;99.90
54516;DHT22;40422;45.892;4.738;2023-04-06T03:49:28;3.50;99.90
54516;DHT22;40422;45.892;4.738;2023-04-06T03:51:56;3.50;99.90
54516;DHT22;40422;45.892;4.738;2023-04-06T03:54:22;3.60;99.90
54516;DHT22;40422;45.892;4.738;2023-04-06T03:56:48;3.60;99.90
54516;DHT22;40422;45.892;4.738;2023-04-06T03:59:13;3.70;99.90
54516;DHT22;40422;45.892;4.738;2023-04-06T04:01:39;3.70;99.90
54516;DHT22;40422;45.892;4.738;2023-04-06T04:04:05;3.80;99.90
54516;DHT22;40422;45.892;4.738;2023-04-06T04:06:30;3.80;99.90
54516;DHT22;40422;45.892;4.738;2023-04-06T04:08:56;3.90;99.90
54516;DHT22;40422;45.892;4.738;2023-04-06T04:11:22;3.90;99.90
54516;DHT22;40422;45.892;4.738;2023-04-06T04:13:47;3.90;99.90
54516;DHT22;40422;45.892;4.738;2023-04-06T04:16:13;3.90;99.90
54516;DHT22;40422;45.892;4.738;2023-04-06T04:18:39;3.90;99.90
54516;DHT22;40422;45.892;4.738;2023-04-06T04:21:04;3.90;99.90
54516;DHT22;40422;45.892;4.738;2023-04-06T04:23:30;3.90;99.90
54516;DHT22;40422;45.892;4.738;2023-04-06T04:25:56;3.90;99.90
54516;DHT22;40422;45.892;4.738;2023-04-06T04:28:21;3.90;99.90
54516;DHT22;40422;45.892;4.738;2023-04-06T04:30:47;3.90;99.90
54516;DHT22;40422;45.892;4.738;2023-04-06T04:33:12;3.90;99.90
54516;DHT22;40422;45.892;4.738;2023-04-06T04:35:38;3.90;99.90
54516;DHT22;40422;45.892;4.738;2023-04-06T04:38:04;3.90;99.90
54516;DHT22;40422;45.892;4.738;2023-04-06T04:40:30;3.90;99.90
54516;DHT22;40422;45.892;4.738;2023-04-06T04:42:56;3.90;99.90
54516;DHT22;40422;45.892;4.738;2023-04-06T04:45:21;3.90;99.90
54516;DHT22;40422;45.892;4.738;2023-04-06T04:47:47;3.80;99.90
54516;DHT22;40422;45.892;4.738;2023-04-06T04:50:12;3.80;99.90
54516;DHT22;40422;45.892;4.738;2023-04-06T04:52:38;3.80;99.90
54516;DHT22;40422;45.892;4.738;2023-04-06T04:55:04;3.80;99.90
54516;DHT22;40422;45.892;4.738;2023-04-06T04:57:30;3.80;99.90
54516;DHT22;40422;45.892;4.738;2023-04-06T04:59:56;3.80;99.90
54516;DHT22;40422;45.892;4.738;2023-04-06T05:02:22;3.90;99.90
54516;DHT22;40422;45.892;4.738;2023-04-06T05:04:48;3.90;99.90
54516;DHT22;40422;45.892;4.738;2023-04-06T05:07:13;3.90;99.90
54516;DHT22;40422;45.892;4.738;2023-04-06T05:09:41;3.90;99.90
54516;DHT22;40422;45.892;4.738;2023-04-06T05:12:07;3.90;99.90
54516;DHT22;40422;45.892;4.738;2023-04-06T05:14:32;3.90;99.90
54516;DHT22;40422;45.892;4.738;2023-04-06T05:16:58;3.90;99.90
54516;DHT22;40422;45.892;4.738;2023-04-06T05:19:26;3.90;99.90
54516;DHT22;40422;45.892;4.738;2023-04-06T05:21:51;4.00;99.90
54516;DHT22;40422;45.892;4.738;2023-04-06T05:24:17;4.10;99.90
54516;DHT22;40422;45.892;4.738;2023-04-06T05:26:42;4.10;99.90
54516;DHT22;40422;45.892;4.738;2023-04-06T05:29:08;4.10;99.90
54516;DHT22;40422;45.892;4.738;2023-04-06T05:31:34;4.10;99.90
54516;DHT22;40422;45.892;4.738;2023-04-06T05:34:00;4.10;99.90
54516;DHT22;40422;45.892;4.738;2023-04-06T05:36:25;4.10;99.90
54516;DHT22;40422;45.892;4.738;2023-04-06T05:38:51;4.00;99.90
54516;DHT22;40422;45.892;4.738;2023-04-06T05:41:18;4.00;99.90
54516;DHT22;40422;45.892;4.738;2023-04-06T05:43:44;4.00;99.90
54516;DHT22;40422;45.892;4.738;2023-04-06T05:46:10;4.00;99.90
54516;DHT22;40422;45.892;4.738;2023-04-06T05:48:36;4.00;99.90
54516;DHT22;40422;45.892;4.738;2023-04-06T05:51:01;4.10;99.90
54516;DHT22;40422;45.892;4.738;2023-04-06T05:53:31;4.10;99.90
54516;DHT22;40422;45.892;4.738;2023-04-06T05:56:00;4.20;99.90
54516;DHT22;40422;45.892;4.738;2023-04-06T05:58:26;4.30;99.90
54516;DHT22;40422;45.892;4.738;2023-04-06T06:00:57;4.40;99.90
54516;DHT22;40422;45.892;4.738;2023-04-06T06:03:23;4.50;99.90
54516;DHT22;40422;45.892;4.738;2023-04-06T06:05:48;4.50;99.90
54516;DHT22;40422;45.892;4.738;2023-04-06T06:08:14;4.60;99.90
54516;DHT22;40422;45.892;4.738;2023-04-06T06:10:40;4.60;99.90
54516;DHT22;40422;45.892;4.738;2023-04-06T06:13:05;4.70;99.90
54516;DHT22;40422;45.892;4.738;2023-04-06T06:15:33;4.80;99.90
54516;DHT22;40422;45.892;4.738;2023-04-06T06:17:58;4.90;99.90
54516;DHT22;40422;45.892;4.738;2023-04-06T06:20:24;4.90;99.90
54516;DHT22;40422;45.892;4.738;2023-04-06T06:22:50;4.90;99.90
54516;DHT22;40422;45.892;4.738;2023-04-06T06:25:16;4.90;99.90
54516;DHT22;40422;45.892;4.738;2023-04-06T06:27:41;4.90;99.90
54516;DHT22;40422;45.892;4.738;2023-04-06T06:30:08;5.00;99.90
54516;DHT22;40422;45.892;4.738;2023-04-06T06:32:34;5.00;99.90
54516;DHT22;40422;45.892;4.738;2023-04-06T06:34:59;5.00;99.90
54516;DHT22;40422;45.892;4.738;2023-04-06T06:37:25;5.00;99.90
54516;DHT22;40422;45.892;4.738;2023-04-06T06:39:51;5.10;99.90
54516;DHT22;40422;45.892;4.738;2023-04-06T06:42:16;5.10;99.90
54516;DHT22;40422;45.892;4.738;2023-04-06T06:44:42;5.20;99.90
54516;DHT22;40422;45.892;4.738;2023-04-06T06:47:08;5.30;99.90
54516;DHT22;40422;45.892;4.738;2023-04-06T06:49:33;5.40;99.90
54516;DHT22;40422;45.892;4.738;2023-04-06T06:51:59;5.50;99.90
54516;DHT22;40422;45.892;4.738;2023-04-06T06:54:25;5.60;99.90
54516;DHT22;40422;45.892;4.738;2023-04-06T06:56:53;5.70;99.90
54516;DHT22;40422;45.892;4.738;2023-04-06T06:59:20;5.80;99.90
54516;DHT22;40422;45.892;4.738;2023-04-06T07:01:47;6.00;99.90
54516;DHT22;40422;45.892;4.738;2023-04-06T07:04:13;6.00;99.90
54516;DHT22;40422;45.892;4.738;2023-04-06T07:06:38;6.10;99.90
54516;DHT22;40422;45.892;4.738;2023-04-06T07:09:04;6.30;99.90
54516;DHT22;40422;45.892;4.738;2023-04-06T07:11:30;6.50;99.90
54516;DHT22;40422;45.892;4.738;2023-04-06T07:13:56;6.60;99.90
54516;DHT22;40422;45.892;4.738;2023-04-06T07:16:21;6.80;99.90
54516;DHT22;40422;45.892;4.738;2023-04-06T07:18:47;6.90;99.90
54516;DHT22;40422;45.892;4.738;2023-04-06T07:21:13;7.10;99.90
54516;DHT22;40422;45.892;4.738;2023-04-06T07:23:39;7.40;99.90
54516;DHT22;40422;45.892;4.738;2023-04-06T07:26:04;7.60;99.90
54516;DHT22;40422;45.892;4.738;2023-04-06T07:28:31;7.80;99.90
54516;DHT22;40422;45.892;4.738;2023-04-06T07:30:57;8.00;99.90
54516;DHT22;40422;45.892;4.738;2023-04-06T07:33:23;8.10;99.90
54516;DHT22;40422;45.892;4.738;2023-04-06T07:35:48;8.20;99.90
54516;DHT22;40422;45.892;4.738;2023-04-06T07:38:14;8.40;99.90
54516;DHT22;40422;45.892;4.738;2023-04-06T07:40:40;8.60;99.90
54516;DHT22;40422;45.892;4.738;2023-04-06T07:43:06;8.70;99.90
54516;DHT22;40422;45.892;4.738;2023-04-06T07:45:31;8.90;99.90
54516;DHT22;40422;45.892;4.738;2023-04-06T07:47:57;9.20;99.90
54516;DHT22;40422;45.892;4.738;2023-04-06T07:50:23;9.40;99.90
54516;DHT22;40422;45.892;4.738;2023-04-06T07:52:49;9.60;99.90
54516;DHT22;40422;45.892;4.738;2023-04-06T07:55:14;9.70;99.80
54516;DHT22;40422;45.892;4.738;2023-04-06T07:57:40;9.80;99.30
54516;DHT22;40422;45.892;4.738;2023-04-06T08:00:06;9.90;99.70
54516;DHT22;40422;45.892;4.738;2023-04-06T08:02:32;10.00;99.00
54516;DHT22;40422;45.892;4.738;2023-04-06T08:04:57;10.10;98.90
54516;DHT22;40422;45.892;4.738;2023-04-06T08:07:23;10.20;98.60
54516;DHT22;40422;45.892;4.738;2023-04-06T08:09:49;10.30;97.80
54516;DHT22;40422;45.892;4.738;2023-04-06T08:12:15;10.50;97.80
54516;DHT22;40422;45.892;4.738;2023-04-06T08:14:41;10.60;97.60
54516;DHT22;40422;45.892;4.738;2023-04-06T08:17:06;10.80;97.10
54516;DHT22;40422;45.892;4.738;2023-04-06T08:19:32;11.00;97.10
54516;DHT22;40422;45.892;4.738;2023-04-06T08:21:57;11.10;96.90
54516;DHT22;40422;45.892;4.738;2023-04-06T08:24:23;11.20;96.60
54516;DHT22;40422;45.892;4.738;2023-04-06T08:26:49;11.30;96.30
54516;DHT22;40422;45.892;4.738;2023-04-06T08:29:16;11.50;96.40
54516;DHT22;40422;45.892;4.738;2023-04-06T08:31:41;11.90;96.20
54516;DHT22;40422;45.892;4.738;2023-04-06T08:34:07;12.10;95.40
54516;DHT22;40422;45.892;4.738;2023-04-06T08:36:33;12.40;94.60
54516;DHT22;40422;45.892;4.738;2023-04-06T08:38:59;12.60;93.50
54516;DHT22;40422;45.892;4.738;2023-04-06T08:41:25;12.70;92.70
54516;DHT22;40422;45.892;4.738;2023-04-06T08:43:54;12.80;91.80
54516;DHT22;40422;45.892;4.738;2023-04-06T08:46:21;13.00;91.60
54516;DHT22;40422;45.892;4.738;2023-04-06T08:48:48;13.30;92.80
54516;DHT22;40422;45.892;4.738;2023-04-06T08:51:15;13.50;90.80
54516;DHT22;40422;45.892;4.738;2023-04-06T08:53:41;13.70;90.20
54516;DHT22;40422;45.892;4.738;2023-04-06T08:56:09;13.90;91.30
54516;DHT22;40422;45.892;4.738;2023-04-06T08:58:39;14.00;89.20
54516;DHT22;40422;45.892;4.738;2023-04-06T09:01:11;14.10;87.80
54516;DHT22;40422;45.892;4.738;2023-04-06T09:03:39;14.10;85.70
54516;DHT22;40422;45.892;4.738;2023-04-06T09:06:05;14.20;87.70
54516;DHT22;40422;45.892;4.738;2023-04-06T09:08:38;14.30;85.30
54516;DHT22;40422;45.892;4.738;2023-04-06T09:11:05;14.50;83.60
54516;DHT22;40422;45.892;4.738;2023-04-06T09:13:31;14.80;80.70
54516;DHT22;40422;45.892;4.738;2023-04-06T09:16:04;14.90;80.90
54516;DHT22;40422;45.892;4.738;2023-04-06T09:18:32;15.10;79.80
54516;DHT22;40422;45.892;4.738;2023-04-06T09:21:02;15.40;79.20
54516;DHT22;40422;45.892;4.738;2023-04-06T09:23:28;15.70;76.80
54516;DHT22;40422;45.892;4.738;2023-04-06T09:26:14;15.80;72.90
54516;DHT22;40422;45.892;4.738;2023-04-06T09:28:44;15.80;71.80
54516;DHT22;40422;45.892;4.738;2023-04-06T09:31:10;15.80;70.00
54516;DHT22;40422;45.892;4.738;2023-04-06T09:33:43;15.80;69.50
54516;DHT22;40422;45.892;4.738;2023-04-06T09:36:09;15.90;70.00
54516;DHT22;40422;45.892;4.738;2023-04-06T09:38:37;15.90;69.60
54516;DHT22;40422;45.892;4.738;2023-04-06T09:41:03;15.90;71.70
54516;DHT22;40422;45.892;4.738;2023-04-06T09:43:29;16.20;67.40
54516;DHT22;40422;45.892;4.738;2023-04-06T09:45:56;16.40;65.80
54516;DHT22;40422;45.892;4.738;2023-04-06T09:48:24;16.50;63.90
54516;DHT22;40422;45.892;4.738;2023-04-06T09:50:55;16.60;64.70
54516;DHT22;40422;45.892;4.738;2023-04-06T09:53:26;16.80;65.40
54516;DHT22;40422;45.892;4.738;2023-04-06T09:55:57;16.90;63.60
54516;DHT22;40422;45.892;4.738;2023-04-06T09:58:24;17.00;65.30
54516;DHT22;40422;45.892;4.738;2023-04-06T10:01:03;17.20;63.80
54516;DHT22;40422;45.892;4.738;2023-04-06T10:06:13;17.10;61.00
54516;DHT22;40422;45.892;4.738;2023-04-06T10:08:41;17.20;62.00
54516;DHT22;40422;45.892;4.738;2023-04-06T10:11:09;17.10;57.90
54516;DHT22;40422;45.892;4.738;2023-04-06T10:13:35;16.80;57.60
54516;DHT22;40422;45.892;4.738;2023-04-06T10:16:02;16.40;56.40
54516;DHT22;40422;45.892;4.738;2023-04-06T10:18:28;16.00;56.70
54516;DHT22;40422;45.892;4.738;2023-04-06T10:21:12;16.00;57.50
54516;DHT22;40422;45.892;4.738;2023-04-06T10:23:40;15.80;57.00
54516;DHT22;40422;45.892;4.738;2023-04-06T10:26:13;15.80;58.50
54516;DHT22;40422;45.892;4.738;2023-04-06T10:28:41;15.80;58.90
54516;DHT22;40422;45.892;4.738;2023-04-06T10:31:07;16.00;58.30
54516;DHT22;40422;45.892;4.738;2023-04-06T10:33:33;16.20;57.20
54516;DHT22;40422;45.892;4.738;2023-04-06T10:36:21;16.50;56.80
54516;DHT22;40422;45.892;4.738;2023-04-06T10:38:57;16.60;57.80
54516;DHT22;40422;45.892;4.738;2023-04-06T10:41:27;16.70;58.20
54516;DHT22;40422;45.892;4.738;2023-04-06T10:43:57;16.70;59.00
54516;DHT22;40422;45.892;4.738;2023-04-06T10:46:29;16.70;60.20
54516;DHT22;40422;45.892;4.738;2023-04-06T10:48:55;16.70;58.90
54516;DHT22;40422;45.892;4.738;2023-04-06T10:51:25;16.80;59.80
54516;DHT22;40422;45.892;4.738;2023-04-06T10:53:55;16.80;61.40
54516;DHT22;40422;45.892;4.738;2023-04-06T10:56:24;17.00;59.10
54516;DHT22;40422;45.892;4.738;2023-04-06T10:58:54;17.20;59.00
54516;DHT22;40422;45.892;4.738;2023-04-06T11:01:23;17.20;58.70
54516;DHT22;40422;45.892;4.738;2023-04-06T11:03:52;17.10;58.40
54516;DHT22;40422;45.892;4.738;2023-04-06T11:06:25;16.80;60.40
54516;DHT22;40422;45.892;4.738;2023-04-06T11:08:52;16.90;59.30
54516;DHT22;40422;45.892;4.738;2023-04-06T11:11:21;17.20;59.20
54516;DHT22;40422;45.892;4.738;2023-04-06T11:13:50;17.50;58.20
54516;DHT22;40422;45.892;4.738;2023-04-06T11:16:19;17.60;58.00
54516;DHT22;40422;45.892;4.738;2023-04-06T11:21:19;18.20;58.20
54516;DHT22;40422;45.892;4.738;2023-04-06T11:23:44;18.40;56.70
54516;DHT22;40422;45.892;4.738;2023-04-06T11:26:14;18.60;56.20
54516;DHT22;40422;45.892;4.738;2023-04-06T11:28:43;18.70;55.70
54516;DHT22;40422;45.892;4.738;2023-04-06T11:31:10;18.70;56.40
54516;DHT22;40422;45.892;4.738;2023-04-06T11:33:37;18.80;55.00
54516;DHT22;40422;45.892;4.738;2023-04-06T11:36:04;19.00;55.70
54516;DHT22;40422;45.892;4.738;2023-04-06T11:38:31;19.00;54.80
54516;DHT22;40422;45.892;4.738;2023-04-06T11:40:56;19.20;55.30
54516;DHT22;40422;45.892;4.738;2023-04-06T11:43:30;19.40;54.90
54516;DHT22;40422;45.892;4.738;2023-04-06T11:46:03;19.30;54.00
54516;DHT22;40422;45.892;4.738;2023-04-06T11:48:30;19.30;54.30
54516;DHT22;40422;45.892;4.738;2023-04-06T11:50:57;19.40;54.70
54516;DHT22;40422;45.892;4.738;2023-04-06T11:53:24;19.50;54.40
54516;DHT22;40422;45.892;4.738;2023-04-06T11:55:50;19.80;54.50
54516;DHT22;40422;45.892;4.738;2023-04-06T11:58:16;19.80;53.60
54516;DHT22;40422;45.892;4.738;2023-04-06T12:00:43;19.70;53.10
54516;DHT22;40422;45.892;4.738;2023-04-06T12:03:11;19.30;52.20
54516;DHT22;40422;45.892;4.738;2023-04-06T12:05:38;19.30;52.80
54516;DHT22;40422;45.892;4.738;2023-04-06T12:08:05;19.60;52.90
54516;DHT22;40422;45.892;4.738;2023-04-06T12:10:30;20.00;53.40
54516;DHT22;40422;45.892;4.738;2023-04-06T12:12:56;20.60;52.90
54516;DHT22;40422;45.892;4.738;2023-04-06T12:15:22;21.30;51.90
54516;DHT22;40422;45.892;4.738;2023-04-06T12:17:48;22.00;51.10
54516;DHT22;40422;45.892;4.738;2023-04-06T12:20:15;22.50;50.30
54516;DHT22;40422;45.892;4.738;2023-04-06T12:22:40;22.70;50.00
54516;DHT22;40422;45.892;4.738;2023-04-06T12:25:06;22.70;50.40
54516;DHT22;40422;45.892;4.738;2023-04-06T12:27:32;23.10;50.80
54516;DHT22;40422;45.892;4.738;2023-04-06T12:29:58;23.60;49.20
54516;DHT22;40422;45.892;4.738;2023-04-06T12:32:24;24.00;48.60
54516;DHT22;40422;45.892;4.738;2023-04-06T12:34:52;24.20;47.70
54516;DHT22;40422;45.892;4.738;2023-04-06T12:37:18;24.30;48.40
54516;DHT22;40422;45.892;4.738;2023-04-06T12:39:44;24.30;48.30
54516;DHT22;40422;45.892;4.738;2023-04-06T12:42:10;24.10;49.50
54516;DHT22;40422;45.892;4.738;2023-04-06T12:44:36;24.10;49.10
54516;DHT22;40422;45.892;4.738;2023-04-06T12:47:02;24.20;49.70
54516;DHT22;40422;45.892;4.738;2023-04-06T12:49:28;23.70;48.90
54516;DHT22;40422;45.892;4.738;2023-04-06T12:51:53;23.60;49.20
54516;DHT22;40422;45.892;4.738;2023-04-06T12:54:20;23.30;49.30
54516;DHT22;40422;45.892;4.738;2023-04-06T12:56:47;23.10;49.40
54516;DHT22;40422;45.892;4.738;2023-04-06T12:59:13;22.60;50.20
54516;DHT22;40422;45.892;4.738;2023-04-06T13:01:38;22.30;49.00
54516;DHT22;40422;45.892;4.738;2023-04-06T13:04:04;22.20;50.40
54516;DHT22;40422;45.892;4.738;2023-04-06T13:06:30;22.20;50.60
54516;DHT22;40422;45.892;4.738;2023-04-06T13:08:55;22.00;51.00
54516;DHT22;40422;45.892;4.738;2023-04-06T13:11:21;21.90;50.80
54516;DHT22;40422;45.892;4.738;2023-04-06T13:13:49;21.90;50.50
54516;DHT22;40422;45.892;4.738;2023-04-06T13:16:15;21.70;50.60
54516;DHT22;40422;45.892;4.738;2023-04-06T13:18:41;21.50;50.70
54516;DHT22;40422;45.892;4.738;2023-04-06T13:21:07;21.20;51.80
54516;DHT22;40422;45.892;4.738;2023-04-06T13:23:33;21.10;51.90
54516;DHT22;40422;45.892;4.738;2023-04-06T13:26:03;20.90;50.40
54516;DHT22;40422;45.892;4.738;2023-04-06T13:28:29;20.80;51.00
54516;DHT22;40422;45.892;4.738;2023-04-06T13:30:57;20.70;51.50
54516;DHT22;40422;45.892;4.738;2023-04-06T13:33:23;20.70;51.50
54516;DHT22;40422;45.892;4.738;2023-04-06T13:35:49;20.80;52.40
54516;DHT22;40422;45.892;4.738;2023-04-06T13:38:14;20.80;51.40
54516;DHT22;40422;45.892;4.738;2023-04-06T13:40:41;21.00;50.60
54516;DHT22;40422;45.892;4.738;2023-04-06T13:43:07;21.00;50.60
54516;DHT22;40422;45.892;4.738;2023-04-06T13:45:32;21.00;51.10
54516;DHT22;40422;45.892;4.738;2023-04-06T13:47:58;21.00;52.30
54516;DHT22;40422;45.892;4.738;2023-04-06T13:50:27;20.80;51.00
54516;DHT22;40422;45.892;4.738;2023-04-06T13:52:53;20.80;51.80
54516;DHT22;40422;45.892;4.738;2023-04-06T13:55:19;20.80;52.30
54516;DHT22;40422;45.892;4.738;2023-04-06T13:57:45;20.80;52.60
54516;DHT22;40422;45.892;4.738;2023-04-06T14:00:11;20.60;52.30
54516;DHT22;40422;45.892;4.738;2023-04-06T14:02:39;20.60;51.50
54516;DHT22;40422;45.892;4.738;2023-04-06T14:05:05;20.50;51.00
54516;DHT22;40422;45.892;4.738;2023-04-06T14:07:31;20.40;50.70
54516;DHT22;40422;45.892;4.738;2023-04-06T14:09:56;20.40;51.30
54516;DHT22;40422;45.892;4.738;2023-04-06T14:12:22;20.30;51.80
54516;DHT22;40422;45.892;4.738;2023-04-06T14:14:47;20.10;51.40
54516;DHT22;40422;45.892;4.738;2023-04-06T14:17:13;20.10;51.70
54516;DHT22;40422;45.892;4.738;2023-04-06T14:19:39;20.20;52.20
54516;DHT22;40422;45.892;4.738;2023-04-06T14:22:05;20.40;50.50
54516;DHT22;40422;45.892;4.738;2023-04-06T14:24:31;20.70;49.90
54516;DHT22;40422;45.892;4.738;2023-04-06T14:26:57;20.70;49.80
54516;DHT22;40422;45.892;4.738;2023-04-06T14:29:23;20.70;50.70
54516;DHT22;40422;45.892;4.738;2023-04-06T14:31:49;21.00;50.60
54516;DHT22;40422;45.892;4.738;2023-04-06T14:34:15;21.40;49.80
54516;DHT22;40422;45.892;4.738;2023-04-06T14:36:42;21.60;51.70
54516;DHT22;40422;45.892;4.738;2023-04-06T14:39:08;21.80;51.00
54516;DHT22;40422;45.892;4.738;2023-04-06T14:41:35;22.00;50.50
54516;DHT22;40422;45.892;4.738;2023-04-06T14:44:01;22.20;50.80
54516;DHT22;40422;45.892;4.738;2023-04-06T14:46:27;22.00;51.00
54516;DHT22;40422;45.892;4.738;2023-04-06T14:48:59;22.00;51.00
54516;DHT22;40422;45.892;4.738;2023-04-06T14:51:25;21.70;51.00
54516;DHT22;40422;45.892;4.738;2023-04-06T14:53:52;21.50;51.90
54516;DHT22;40422;45.892;4.738;2023-04-06T14:56:21;21.20;52.10
54516;DHT22;40422;45.892;4.738;2023-04-06T14:58:46;21.00;51.20
54516;DHT22;40422;45.892;4.738;2023-04-06T15:01:15;21.00;51.20
54516;DHT22;40422;45.892;4.738;2023-04-06T15:03:41;20.80;50.80
54516;DHT22;40422;45.892;4.738;2023-04-06T15:06:12;20.70;51.50
54516;DHT22;40422;45.892;4.738;2023-04-06T15:08:40;20.60;51.50
54516;DHT22;40422;45.892;4.738;2023-04-06T15:11:06;20.60;51.40
54516;DHT22;40422;45.892;4.738;2023-04-06T15:13:31;20.70;51.90
54516;DHT22;40422;45.892;4.738;2023-04-06T15:15:57;20.70;51.80
54516;DHT22;40422;45.892;4.738;2023-04-06T15:18:22;20.60;51.60
54516;DHT22;40422;45.892;4.738;2023-04-06T15:20:48;20.60;51.30
54516;DHT22;40422;45.892;4.738;2023-04-06T15:23:14;20.60;51.70
54516;DHT22;40422;45.892;4.738;2023-04-06T15:25:39;20.50;52.50
54516;DHT22;40422;45.892;4.738;2023-04-06T15:28:06;20.40;51.70
54516;DHT22;40422;45.892;4.738;2023-04-06T15:30:32;20.20;51.70
54516;DHT22;40422;45.892;4.738;2023-04-06T15:33:00;20.20;53.10
54516;DHT22;40422;45.892;4.738;2023-04-06T15:35:27;20.00;53.10
54516;DHT22;40422;45.892;4.738;2023-04-06T15:37:56;19.90;52.50
54516;DHT22;40422;45.892;4.738;2023-04-06T15:40:22;19.90;52.70
54516;DHT22;40422;45.892;4.738;2023-04-06T15:42:48;19.80;53.10
54516;DHT22;40422;45.892;4.738;2023-04-06T15:45:14;19.40;53.90
54516;DHT22;40422;45.892;4.738;2023-04-06T15:47:44;19.30;54.20
54516;DHT22;40422;45.892;4.738;2023-04-06T15:50:10;19.10;53.80
54516;DHT22;40422;45.892;4.738;2023-04-06T15:52:37;19.00;54.00
54516;DHT22;40422;45.892;4.738;2023-04-06T15:55:04;18.70;55.30
54516;DHT22;40422;45.892;4.738;2023-04-06T15:57:30;18.50;57.90
54516;DHT22;40422;45.892;4.738;2023-04-06T16:00:00;18.20;55.90
54516;DHT22;40422;45.892;4.738;2023-04-06T16:02:26;18.00;55.20
54516;DHT22;40422;45.892;4.738;2023-04-06T16:04:56;17.90;55.20
54516;DHT22;40422;45.892;4.738;2023-04-06T16:07:22;17.90;57.10
54516;DHT22;40422;45.892;4.738;2023-04-06T16:09:49;17.70;57.50
54516;DHT22;40422;45.892;4.738;2023-04-06T16:12:15;17.60;57.70
54516;DHT22;40422;45.892;4.738;2023-04-06T16:14:40;17.40;57.20
54516;DHT22;40422;45.892;4.738;2023-04-06T16:17:06;17.30;58.30
54516;DHT22;40422;45.892;4.738;2023-04-06T16:19:32;17.30;57.60
54516;DHT22;40422;45.892;4.738;2023-04-06T16:21:57;17.30;58.00
54516;DHT22;40422;45.892;4.738;2023-04-06T16:24:23;17.20;57.80
54516;DHT22;40422;45.892;4.738;2023-04-06T16:26:48;17.30;57.70
54516;DHT22;40422;45.892;4.738;2023-04-06T16:29:15;17.30;58.90
54516;DHT22;40422;45.892;4.738;2023-04-06T16:31:41;17.40;58.50
54516;DHT22;40422;45.892;4.738;2023-04-06T16:34:11;17.40;59.00
54516;DHT22;40422;45.892;4.738;2023-04-06T16:36:37;17.50;57.90
54516;DHT22;40422;45.892;4.738;2023-04-06T16:39:06;17.50;57.80
54516;DHT22;40422;45.892;4.738;2023-04-06T16:41:32;17.60;57.40
54516;DHT22;40422;45.892;4.738;2023-04-06T16:43:58;17.70;57.30
54516;DHT22;40422;45.892;4.738;2023-04-06T16:46:34;17.70;57.90
54516;DHT22;40422;45.892;4.738;2023-04-06T16:49:01;17.70;57.90
54516;DHT22;40422;45.892;4.738;2023-04-06T16:51:28;17.90;57.00
54516;DHT22;40422;45.892;4.738;2023-04-06T16:53:53;18.10;56.40
54516;DHT22;40422;45.892;4.738;2023-04-06T16:56:19;18.40;56.10
54516;DHT22;40422;45.892;4.738;2023-04-06T16:58:45;18.70;55.60
54516;DHT22;40422;45.892;4.738;2023-04-06T17:01:19;18.80;55.30
54516;DHT22;40422;45.892;4.738;2023-04-06T17:03:45;19.00;55.10
54516;DHT22;40422;45.892;4.738;2023-04-06T17:06:12;19.10;56.00
54516;DHT22;40422;45.892;4.738;2023-04-06T17:08:38;19.20;55.60
54516;DHT22;40422;45.892;4.738;2023-04-06T17:11:03;19.30;55.80
54516;DHT22;40422;45.892;4.738;2023-04-06T17:13:29;19.30;55.60
54516;DHT22;40422;45.892;4.738;2023-04-06T17:15:55;19.30;55.40
54516;DHT22;40422;45.892;4.738;2023-04-06T17:18:20;19.30;54.80
54516;DHT22;40422;45.892;4.738;2023-04-06T17:20:46;19.20;55.00
54516;DHT22;40422;45.892;4.738;2023-04-06T17:23:13;19.10;56.30
54516;DHT22;40422;45.892;4.738;2023-04-06T17:25:39;19.10;56.90
54516;DHT22;40422;45.892;4.738;2023-04-06T17:28:05;19.00;55.70
54516;DHT22;40422;45.892;4.738;2023-04-06T17:30:30;19.20;55.70
54516;DHT22;40422;45.892;4.738;2023-04-06T17:32:58;19.30;55.00
54516;DHT22;40422;45.892;4.738;2023-04-06T17:35:25;19.40;55.40
54516;DHT22;40422;45.892;4.738;2023-04-06T17:37:51;19.40;55.50
54516;DHT22;40422;45.892;4.738;2023-04-06T17:40:16;19.50;56.00
54516;DHT22;40422;45.892;4.738;2023-04-06T17:42:42;19.40;56.00
54516;DHT22;40422;45.892;4.738;2023-04-06T17:45:08;19.30;56.80
54516;DHT22;40422;45.892;4.738;2023-04-06T17:47:33;19.10;57.00
54516;DHT22;40422;45.892;4.738;2023-04-06T17:50:00;18.70;56.70
54516;DHT22;40422;45.892;4.738;2023-04-06T17:52:27;18.50;57.60
54516;DHT22;40422;45.892;4.738;2023-04-06T17:54:53;18.20;58.90
54516;DHT22;40422;45.892;4.738;2023-04-06T17:57:20;18.00;59.00
54516;DHT22;40422;45.892;4.738;2023-04-06T17:59:46;17.70;59.10
54516;DHT22;40422;45.892;4.738;2023-04-06T18:02:12;17.50;59.70
54516;DHT22;40422;45.892;4.738;2023-04-06T18:04:37;17.30;59.80
54516;DHT22;40422;45.892;4.738;2023-04-06T18:07:06;17.10;60.50
54516;DHT22;40422;45.892;4.738;2023-04-06T18:09:31;17.00;60.30
54516;DHT22;40422;45.892;4.738;2023-04-06T18:11:57;16.90;61.30
54516;DHT22;40422;45.892;4.738;2023-04-06T18:14:23;16.80;64.10
54516;DHT22;40422;45.892;4.738;2023-04-06T18:16:48;16.60;64.20
54516;DHT22;40422;45.892;4.738;2023-04-06T18:19:14;16.40;64.30
54516;DHT22;40422;45.892;4.738;2023-04-06T18:21:40;16.30;65.10
54516;DHT22;40422;45.892;4.738;2023-04-06T18:24:06;16.20;65.00
54516;DHT22;40422;45.892;4.738;2023-04-06T18:26:32;16.10;64.80
54516;DHT22;40422;45.892;4.738;2023-04-06T18:28:58;16.00;65.00
54516;DHT22;40422;45.892;4.738;2023-04-06T18:31:23;15.80;64.10
54516;DHT22;40422;45.892;4.738;2023-04-06T18:33:49;15.70;64.10
54516;DHT22;40422;45.892;4.738;2023-04-06T18:36:15;15.70;64.30